createdAt,value
2023-02-02T00:02:06.918Z,19.8
2023-02-02T00:07:29.846Z,19.8
2023-02-02T00:12:52.495Z,19.8
2023-02-02T00:18:15.600Z,19.7
2023-02-02T00:23:38.132Z,19.7
2023-02-02T00:29:01.167Z,19.7
2023-02-02T00:34:24.181Z,19.6
2023-02-02T00:39:45.901Z,19.6
2023-02-02T00:45:08.196Z,19.6
2023-02-02T00:50:31.110Z,19.6
2023-02-02T00:55:53.486Z,19.6
2023-02-02T01:01:16.442Z,19.6
2023-02-02T01:06:38.759Z,19.6
2023-02-02T01:12:00.541Z,19.6
2023-02-02T01:17:23.685Z,19.6
2023-02-02T01:22:45.997Z,19.5
2023-02-02T01:28:08.335Z,19.5
2023-02-02T01:33:15.308Z,19.5
2023-02-02T01:38:22.393Z,19.4
2023-02-02T01:43:44.449Z,19.4
2023-02-02T01:48:52.182Z,19.4
2023-02-02T01:54:14.185Z,19.4
2023-02-02T01:59:35.997Z,19.4
2023-02-02T02:04:43.472Z,19.4
2023-02-02T02:10:05.521Z,19.4
2023-02-02T02:15:27.269Z,19.4
2023-02-02T02:20:49.383Z,19.4
2023-02-02T02:26:12.196Z,19.4
2023-02-02T02:31:18.585Z,19.3
2023-02-02T02:36:41.282Z,19.3
2023-02-02T02:42:03.266Z,19.3
2023-02-02T02:47:26.365Z,19.3
2023-02-02T02:52:33.336Z,19.3
2023-02-02T02:57:55.795Z,19.3
2023-02-02T03:03:18.707Z,19.3
2023-02-02T03:08:41.416Z,19.3
2023-02-02T03:13:48.679Z,19.3
2023-02-02T03:19:10.848Z,19.3
2023-02-02T03:24:18.077Z,19.2
2023-02-02T03:29:25.630Z,19.2
2023-02-02T03:34:32.855Z,19.2
2023-02-02T03:39:55.573Z,19.2
2023-02-02T03:44:47.552Z,19.2
2023-02-02T03:50:10.215Z,19.2
2023-02-02T03:55:33.198Z,19.1
2023-02-02T04:00:55.573Z,19.1
2023-02-02T04:06:02.477Z,19.1
2023-02-02T04:10:53.662Z,19.1
2023-02-02T04:16:16.379Z,19.1
2023-02-02T04:21:39.307Z,19.1
2023-02-02T04:27:02.573Z,19.1
2023-02-02T04:32:25.247Z,19.1
2023-02-02T04:37:31.890Z,19.1
2023-02-02T04:42:54.250Z,19.1
2023-02-02T04:48:17.604Z,19.1
2023-02-02T04:53:39.687Z,19
2023-02-02T04:58:15.841Z,19
2023-02-02T05:03:09.849Z,19
2023-02-02T05:08:34.274Z,19
2023-02-02T05:13:41.864Z,18.9
2023-02-02T05:19:04.807Z,18.9
2023-02-02T05:24:11.648Z,18.9
2023-02-02T05:29:50.140Z,18.9
2023-02-02T05:35:28.730Z,18.9
2023-02-02T05:40:35.325Z,18.9
2023-02-02T05:45:43.251Z,18.9
2023-02-02T05:51:05.791Z,18.9
2023-02-02T05:56:43.932Z,18.9
2023-02-02T06:02:22.242Z,18.9
2023-02-02T06:08:01.631Z,18.9
2023-02-02T06:13:38.402Z,18.9
2023-02-02T06:19:17.119Z,18.9
2023-02-02T06:24:55.273Z,18.9
2023-02-02T06:30:18.228Z,18.9
2023-02-02T06:35:58.389Z,18.9
2023-02-02T06:41:36.323Z,18.9
2023-02-02T06:47:10.842Z,18.9
2023-02-02T06:52:49.490Z,18.8
2023-02-02T06:58:30.727Z,18.8
2023-02-02T07:04:09.105Z,18.8
2023-02-02T07:09:57.733Z,18.8
2023-02-02T07:16:39.562Z,18.8
2023-02-02T07:22:01.661Z,18.8
2023-02-02T08:15:42.394Z,18.6
2023-02-02T08:21:21.255Z,37.6
2023-02-02T08:26:59.742Z,39.4
2023-02-02T08:32:22.954Z,32.4
2023-02-02T08:38:01.573Z,33.6
2023-02-02T08:43:43.338Z,44
2023-02-02T08:51:03.354Z,35.9
2023-02-02T08:56:41.755Z,32.6
2023-02-02T09:02:19.538Z,31.9
2023-02-02T09:07:58.976Z,46.6
2023-02-02T09:13:39.804Z,48.9
2023-02-02T09:19:18.233Z,45
2023-02-02T09:24:56.663Z,45.6
2023-02-02T09:30:35.569Z,47.4
2023-02-02T09:35:59.493Z,48.4
2023-02-02T09:41:40.679Z,49.1
2023-02-02T09:47:18.259Z,50.1
2023-02-02T09:52:56.663Z,51.2
2023-02-02T09:58:45.132Z,52.1
2023-02-02T10:04:39.652Z,53.1
2023-02-02T10:10:27.719Z,53.8
2023-02-02T10:16:06.965Z,53.8
2023-02-02T10:21:48.343Z,51
2023-02-02T10:27:11.599Z,50.1
2023-02-02T10:33:01.395Z,44.3
2023-02-02T10:38:54.530Z,40
2023-02-02T10:44:32.604Z,47.4
2023-02-02T10:50:12.670Z,49.6
2023-02-02T10:56:03.554Z,44.1
2023-02-02T11:01:42.751Z,56.5
2023-02-02T11:07:34.881Z,53.8
2023-02-02T11:13:14.879Z,49.7
2023-02-02T11:19:09.582Z,52.1
2023-02-02T11:24:32.433Z,53
2023-02-02T11:30:10.743Z,54.1
2023-02-02T11:37:31.493Z,45.7
2023-02-02T11:43:09.650Z,41.3
2023-02-02T11:48:48.084Z,49.6
2023-02-02T11:54:34.489Z,54.8
2023-02-02T12:00:13.731Z,53.7
2023-02-02T12:05:55.830Z,51
2023-02-02T12:11:33.516Z,47.4
2023-02-02T12:16:59.099Z,43
2023-02-02T20:31:11.204Z,19.9
